sensor_id;sensor_type;location;lat;lon;timestamp;temperature;humidity
8463;DHT22;4268;52.506;13.462;2022-09-27T00:00:25;12.70;99.90
8463;DHT22;4268;52.506;13.462;2022-09-27T00:02:50;12.70;99.90
8463;DHT22;4268;52.506;13.462;2022-09-27T00:05:17;12.70;99.90
8463;DHT22;4268;52.506;13.462;2022-09-27T00:07:43;12.70;99.90
8463;DHT22;4268;52.506;13.462;2022-09-27T00:10:09;12.70;99.90
8463;DHT22;4268;52.506;13.462;2022-09-27T00:12:36;12.60;99.90
8463;DHT22;4268;52.506;13.462;2022-09-27T00:15:02;12.60;99.90
8463;DHT22;4268;52.506;13.462;2022-09-27T00:17:28;12.60;99.90
8463;DHT22;4268;52.506;13.462;2022-09-27T00:19:54;12.60;99.90
8463;DHT22;4268;52.506;13.462;2022-09-27T00:22:23;12.60;99.90
8463;DHT22;4268;52.506;13.462;2022-09-27T00:24:49;12.60;99.90
8463;DHT22;4268;52.506;13.462;2022-09-27T00:27:14;12.60;99.90
8463;DHT22;4268;52.506;13.462;2022-09-27T00:29:40;12.60;99.90
8463;DHT22;4268;52.506;13.462;2022-09-27T00:32:05;12.60;99.90
8463;DHT22;4268;52.506;13.462;2022-09-27T00:34:31;12.60;99.90
8463;DHT22;4268;52.506;13.462;2022-09-27T00:36:57;12.50;99.90
8463;DHT22;4268;52.506;13.462;2022-09-27T00:39:22;12.60;99.90
8463;DHT22;4268;52.506;13.462;2022-09-27T00:41:48;12.50;99.90
8463;DHT22;4268;52.506;13.462;2022-09-27T00:47:13;12.50;99.90
8463;DHT22;4268;52.506;13.462;2022-09-27T00:49:51;12.50;99.90
8463;DHT22;4268;52.506;13.462;2022-09-27T00:52:26;12.50;99.90
8463;DHT22;4268;52.506;13.462;2022-09-27T00:54:58;12.50;99.90
8463;DHT22;4268;52.506;13.462;2022-09-27T00:57:26;12.50;99.90
8463;DHT22;4268;52.506;13.462;2022-09-27T01:00:00;12.50;99.90
8463;DHT22;4268;52.506;13.462;2022-09-27T01:02:28;12.50;99.90
8463;DHT22;4268;52.506;13.462;2022-09-27T01:04:53;12.50;99.90
8463;DHT22;4268;52.506;13.462;2022-09-27T01:07:19;12.50;99.90
8463;DHT22;4268;52.506;13.462;2022-09-27T01:09:45;12.50;99.90
8463;DHT22;4268;52.506;13.462;2022-09-27T01:18:17;12.40;99.90
8463;DHT22;4268;52.506;13.462;2022-09-27T01:23:43;12.40;99.90
8463;DHT22;4268;52.506;13.462;2022-09-27T01:26:36;12.40;99.90
8463;DHT22;4268;52.506;13.462;2022-09-27T01:29:28;12.40;99.90
8463;DHT22;4268;52.506;13.462;2022-09-27T01:32:12;12.40;99.90
8463;DHT22;4268;52.506;13.462;2022-09-27T01:34:52;12.40;99.90
8463;DHT22;4268;52.506;13.462;2022-09-27T01:37:49;12.40;99.90
8463;DHT22;4268;52.506;13.462;2022-09-27T01:40:22;12.40;99.90
8463;DHT22;4268;52.506;13.462;2022-09-27T01:43:29;12.40;99.90
8463;DHT22;4268;52.506;13.462;2022-09-27T01:46:07;12.40;99.90
8463;DHT22;4268;52.506;13.462;2022-09-27T01:48:40;12.40;99.90
8463;DHT22;4268;52.506;13.462;2022-09-27T01:51:13;12.50;99.90
8463;DHT22;4268;52.506;13.462;2022-09-27T01:53:46;12.50;99.90
8463;DHT22;4268;52.506;13.462;2022-09-27T01:56:17;12.50;99.90
8463;DHT22;4268;52.506;13.462;2022-09-27T01:58:51;12.50;99.90
8463;DHT22;4268;52.506;13.462;2022-09-27T02:01:19;12.50;99.90
8463;DHT22;4268;52.506;13.462;2022-09-27T02:03:49;12.50;99.90
8463;DHT22;4268;52.506;13.462;2022-09-27T02:06:29;12.50;99.90
8463;DHT22;4268;52.506;13.462;2022-09-27T02:09:04;12.50;99.90
8463;DHT22;4268;52.506;13.462;2022-09-27T02:11:32;12.60;99.90
8463;DHT22;4268;52.506;13.462;2022-09-27T02:14:16;12.60;99.90
8463;DHT22;4268;52.506;13.462;2022-09-27T02:16:58;12.60;99.90
8463;DHT22;4268;52.506;13.462;2022-09-27T02:19:37;12.60;99.90
8463;DHT22;4268;52.506;13.462;2022-09-27T02:22:12;12.60;99.90
8463;DHT22;4268;52.506;13.462;2022-09-27T02:24:53;12.60;99.90
8463;DHT22;4268;52.506;13.462;2022-09-27T02:27:25;12.60;99.90
8463;DHT22;4268;52.506;13.462;2022-09-27T02:29:58;12.60;99.90
8463;DHT22;4268;52.506;13.462;2022-09-27T02:32:25;12.60;99.90
8463;DHT22;4268;52.506;13.462;2022-09-27T02:34:51;12.70;99.90
8463;DHT22;4268;52.506;13.462;2022-09-27T02:37:18;12.70;99.90
8463;DHT22;4268;52.506;13.462;2022-09-27T02:39:44;12.70;99.90
8463;DHT22;4268;52.506;13.462;2022-09-27T02:42:09;12.70;99.90
8463;DHT22;4268;52.506;13.462;2022-09-27T02:44:35;12.70;99.90
8463;DHT22;4268;52.506;13.462;2022-09-27T02:50:14;12.80;99.90
8463;DHT22;4268;52.506;13.462;2022-09-27T02:52:55;12.80;99.90
8463;DHT22;4268;52.506;13.462;2022-09-27T02:55:42;12.70;99.90
8463;DHT22;4268;52.506;13.462;2022-09-27T02:58:33;12.70;99.90
8463;DHT22;4268;52.506;13.462;2022-09-27T03:01:26;12.70;99.90
8463;DHT22;4268;52.506;13.462;2022-09-27T03:04:17;12.70;99.90
8463;DHT22;4268;52.506;13.462;2022-09-27T03:06:47;12.70;99.90
8463;DHT22;4268;52.506;13.462;2022-09-27T03:09:24;12.70;99.90
8463;DHT22;4268;52.506;13.462;2022-09-27T03:11:52;12.80;99.90
8463;DHT22;4268;52.506;13.462;2022-09-27T03:14:17;12.80;99.90
8463;DHT22;4268;52.506;13.462;2022-09-27T03:16:43;12.80;99.90
8463;DHT22;4268;52.506;13.462;2022-09-27T03:19:09;12.80;99.90
8463;DHT22;4268;52.506;13.462;2022-09-27T03:21:34;12.80;99.90
8463;DHT22;4268;52.506;13.462;2022-09-27T03:24:00;12.80;99.90
8463;DHT22;4268;52.506;13.462;2022-09-27T03:26:26;12.80;99.90
8463;DHT22;4268;52.506;13.462;2022-09-27T03:28:52;12.80;99.90
8463;DHT22;4268;52.506;13.462;2022-09-27T03:31:18;12.80;99.90
8463;DHT22;4268;52.506;13.462;2022-09-27T03:33:43;12.80;99.90
8463;DHT22;4268;52.506;13.462;2022-09-27T03:36:09;12.80;99.90
8463;DHT22;4268;52.506;13.462;2022-09-27T03:38:36;12.80;99.90
8463;DHT22;4268;52.506;13.462;2022-09-27T03:41:02;12.80;99.90
8463;DHT22;4268;52.506;13.462;2022-09-27T03:43:27;12.80;99.90
8463;DHT22;4268;52.506;13.462;2022-09-27T03:45:53;12.80;99.90
8463;DHT22;4268;52.506;13.462;2022-09-27T03:48:18;12.80;99.90
8463;DHT22;4268;52.506;13.462;2022-09-27T03:50:44;12.80;99.90
8463;DHT22;4268;52.506;13.462;2022-09-27T03:53:09;12.80;99.90
8463;DHT22;4268;52.506;13.462;2022-09-27T03:55:35;12.80;99.90
8463;DHT22;4268;52.506;13.462;2022-09-27T03:58:01;12.70;99.90
8463;DHT22;4268;52.506;13.462;2022-09-27T04:00:26;12.70;99.90
8463;DHT22;4268;52.506;13.462;2022-09-27T04:02:53;12.80;99.90
8463;DHT22;4268;52.506;13.462;2022-09-27T04:05:18;12.70;99.90
8463;DHT22;4268;52.506;13.462;2022-09-27T04:07:47;12.70;99.90
8463;DHT22;4268;52.506;13.462;2022-09-27T04:10:14;12.70;99.90
8463;DHT22;4268;52.506;13.462;2022-09-27T04:12:39;12.60;99.90
8463;DHT22;4268;52.506;13.462;2022-09-27T04:15:05;12.60;99.90
8463;DHT22;4268;52.506;13.462;2022-09-27T04:17:33;12.60;99.90
8463;DHT22;4268;52.506;13.462;2022-09-27T04:19:58;12.60;99.90
8463;DHT22;4268;52.506;13.462;2022-09-27T04:22:26;12.60;99.90
8463;DHT22;4268;52.506;13.462;2022-09-27T04:24:51;12.60;99.90
8463;DHT22;4268;52.506;13.462;2022-09-27T04:27:17;12.60;99.90
8463;DHT22;4268;52.506;13.462;2022-09-27T04:29:42;12.50;99.90
8463;DHT22;4268;52.506;13.462;2022-09-27T04:32:11;12.50;99.90
8463;DHT22;4268;52.506;13.462;2022-09-27T04:34:36;12.50;99.90
8463;DHT22;4268;52.506;13.462;2022-09-27T04:37:20;12.50;99.90
8463;DHT22;4268;52.506;13.462;2022-09-27T04:39:46;12.50;99.90
8463;DHT22;4268;52.506;13.462;2022-09-27T04:42:13;12.50;99.90
8463;DHT22;4268;52.506;13.462;2022-09-27T04:44:39;12.50;99.90
8463;DHT22;4268;52.506;13.462;2022-09-27T04:47:05;12.40;99.90
8463;DHT22;4268;52.506;13.462;2022-09-27T04:49:30;12.40;99.90
8463;DHT22;4268;52.506;13.462;2022-09-27T04:51:56;12.40;99.90
8463;DHT22;4268;52.506;13.462;2022-09-27T04:54:22;12.40;99.90
8463;DHT22;4268;52.506;13.462;2022-09-27T04:56:47;12.40;99.90
8463;DHT22;4268;52.506;13.462;2022-09-27T04:59:13;12.40;99.90
8463;DHT22;4268;52.506;13.462;2022-09-27T05:01:40;12.40;99.90
8463;DHT22;4268;52.506;13.462;2022-09-27T05:04:05;12.30;99.90
8463;DHT22;4268;52.506;13.462;2022-09-27T05:06:31;12.30;99.90
8463;DHT22;4268;52.506;13.462;2022-09-27T05:08:56;12.30;99.90
8463;DHT22;4268;52.506;13.462;2022-09-27T05:11:23;12.30;99.90
8463;DHT22;4268;52.506;13.462;2022-09-27T05:13:48;12.30;99.90
8463;DHT22;4268;52.506;13.462;2022-09-27T05:16:14;12.30;99.90
8463;DHT22;4268;52.506;13.462;2022-09-27T05:18:40;12.30;99.90
8463;DHT22;4268;52.506;13.462;2022-09-27T05:21:05;12.30;99.90
8463;DHT22;4268;52.506;13.462;2022-09-27T05:23:31;12.30;99.90
8463;DHT22;4268;52.506;13.462;2022-09-27T05:25:57;12.30;99.90
8463;DHT22;4268;52.506;13.462;2022-09-27T05:28:22;12.30;99.90
8463;DHT22;4268;52.506;13.462;2022-09-27T05:30:48;12.30;99.90
8463;DHT22;4268;52.506;13.462;2022-09-27T05:33:14;12.50;99.90
8463;DHT22;4268;52.506;13.462;2022-09-27T05:35:39;12.30;99.90
8463;DHT22;4268;52.506;13.462;2022-09-27T05:38:11;12.20;99.90
8463;DHT22;4268;52.506;13.462;2022-09-27T05:40:37;12.20;99.90
8463;DHT22;4268;52.506;13.462;2022-09-27T05:43:02;12.20;99.90
8463;DHT22;4268;52.506;13.462;2022-09-27T05:45:28;12.20;99.90
8463;DHT22;4268;52.506;13.462;2022-09-27T05:47:58;12.20;99.90
8463;DHT22;4268;52.506;13.462;2022-09-27T05:50:25;12.20;99.90
8463;DHT22;4268;52.506;13.462;2022-09-27T05:52:51;12.20;99.90
8463;DHT22;4268;52.506;13.462;2022-09-27T05:55:17;12.20;99.90
8463;DHT22;4268;52.506;13.462;2022-09-27T05:57:53;12.20;99.90
8463;DHT22;4268;52.506;13.462;2022-09-27T06:00:18;12.30;99.90
8463;DHT22;4268;52.506;13.462;2022-09-27T06:02:44;12.30;99.90
8463;DHT22;4268;52.506;13.462;2022-09-27T06:05:09;12.40;99.90
8463;DHT22;4268;52.506;13.462;2022-09-27T06:07:35;12.40;99.90
8463;DHT22;4268;52.506;13.462;2022-09-27T06:10:03;12.40;99.90
8463;DHT22;4268;52.506;13.462;2022-09-27T06:12:29;12.30;99.90
8463;DHT22;4268;52.506;13.462;2022-09-27T06:14:55;12.30;99.90
8463;DHT22;4268;52.506;13.462;2022-09-27T06:17:20;12.30;99.90
8463;DHT22;4268;52.506;13.462;2022-09-27T06:19:46;12.20;99.90
8463;DHT22;4268;52.506;13.462;2022-09-27T06:22:11;12.20;99.90
8463;DHT22;4268;52.506;13.462;2022-09-27T06:24:37;12.20;99.90
8463;DHT22;4268;52.506;13.462;2022-09-27T06:27:02;12.20;99.90
8463;DHT22;4268;52.506;13.462;2022-09-27T06:29:29;12.20;99.90
8463;DHT22;4268;52.506;13.462;2022-09-27T06:31:55;12.20;99.90
8463;DHT22;4268;52.506;13.462;2022-09-27T06:34:21;12.20;99.90
8463;DHT22;4268;52.506;13.462;2022-09-27T06:36:49;12.30;99.90
8463;DHT22;4268;52.506;13.462;2022-09-27T06:39:14;12.30;99.90
8463;DHT22;4268;52.506;13.462;2022-09-27T06:41:39;12.30;99.90
8463;DHT22;4268;52.506;13.462;2022-09-27T06:44:06;12.30;99.90
8463;DHT22;4268;52.506;13.462;2022-09-27T06:46:31;12.30;99.90
8463;DHT22;4268;52.506;13.462;2022-09-27T06:48:57;12.30;99.90
8463;DHT22;4268;52.506;13.462;2022-09-27T06:51:22;12.30;99.90
8463;DHT22;4268;52.506;13.462;2022-09-27T06:53:48;12.40;99.90
8463;DHT22;4268;52.506;13.462;2022-09-27T06:56:13;12.30;99.90
8463;DHT22;4268;52.506;13.462;2022-09-27T06:58:39;12.80;99.90
8463;DHT22;4268;52.506;13.462;2022-09-27T07:01:27;12.40;99.90
8463;DHT22;4268;52.506;13.462;2022-09-27T07:03:53;12.40;99.90
8463;DHT22;4268;52.506;13.462;2022-09-27T07:06:20;12.30;99.90
8463;DHT22;4268;52.506;13.462;2022-09-27T07:08:52;12.30;99.90
8463;DHT22;4268;52.506;13.462;2022-09-27T07:11:19;12.30;99.90
8463;DHT22;4268;52.506;13.462;2022-09-27T07:13:45;12.30;99.90
8463;DHT22;4268;52.506;13.462;2022-09-27T07:16:11;12.30;99.90
8463;DHT22;4268;52.506;13.462;2022-09-27T07:18:38;12.30;99.90
8463;DHT22;4268;52.506;13.462;2022-09-27T07:21:03;12.40;99.90
8463;DHT22;4268;52.506;13.462;2022-09-27T07:23:29;12.50;99.90
8463;DHT22;4268;52.506;13.462;2022-09-27T07:25:54;12.60;99.90
8463;DHT22;4268;52.506;13.462;2022-09-27T07:28:20;12.70;99.90
8463;DHT22;4268;52.506;13.462;2022-09-27T07:30:46;12.70;99.90
8463;DHT22;4268;52.506;13.462;2022-09-27T07:33:11;12.60;99.90
8463;DHT22;4268;52.506;13.462;2022-09-27T07:35:41;12.60;99.90
8463;DHT22;4268;52.506;13.462;2022-09-27T07:38:09;12.60;99.90
8463;DHT22;4268;52.506;13.462;2022-09-27T07:40:37;12.60;99.90
8463;DHT22;4268;52.506;13.462;2022-09-27T07:43:03;12.60;99.90
8463;DHT22;4268;52.506;13.462;2022-09-27T07:45:29;12.60;99.90
8463;DHT22;4268;52.506;13.462;2022-09-27T07:47:55;12.60;99.90
8463;DHT22;4268;52.506;13.462;2022-09-27T07:50:20;12.60;99.90
8463;DHT22;4268;52.506;13.462;2022-09-27T07:52:48;12.60;99.90
8463;DHT22;4268;52.506;13.462;2022-09-27T07:55:16;12.60;99.90
8463;DHT22;4268;52.506;13.462;2022-09-27T07:57:42;12.60;99.90
8463;DHT22;4268;52.506;13.462;2022-09-27T08:00:11;12.60;99.90
8463;DHT22;4268;52.506;13.462;2022-09-27T08:02:39;12.60;99.90
8463;DHT22;4268;52.506;13.462;2022-09-27T08:05:05;12.60;99.90
8463;DHT22;4268;52.506;13.462;2022-09-27T08:07:30;12.50;99.90
8463;DHT22;4268;52.506;13.462;2022-09-27T08:09:57;12.50;99.90
8463;DHT22;4268;52.506;13.462;2022-09-27T08:12:22;12.50;99.90
8463;DHT22;4268;52.506;13.462;2022-09-27T08:14:48;12.50;99.90
8463;DHT22;4268;52.506;13.462;2022-09-27T08:17:15;12.50;99.90
8463;DHT22;4268;52.506;13.462;2022-09-27T08:19:40;12.50;99.90
8463;DHT22;4268;52.506;13.462;2022-09-27T08:22:07;12.50;99.90
8463;DHT22;4268;52.506;13.462;2022-09-27T08:24:32;12.40;99.90
8463;DHT22;4268;52.506;13.462;2022-09-27T08:26:59;12.40;99.90
8463;DHT22;4268;52.506;13.462;2022-09-27T08:29:24;12.40;99.90
8463;DHT22;4268;52.506;13.462;2022-09-27T08:31:51;12.40;99.90
8463;DHT22;4268;52.506;13.462;2022-09-27T08:34:18;12.40;99.90
8463;DHT22;4268;52.506;13.462;2022-09-27T08:36:43;12.40;99.90
8463;DHT22;4268;52.506;13.462;2022-09-27T08:39:09;12.50;99.90
8463;DHT22;4268;52.506;13.462;2022-09-27T08:41:53;12.50;99.90
8463;DHT22;4268;52.506;13.462;2022-09-27T08:44:31;12.50;99.90
8463;DHT22;4268;52.506;13.462;2022-09-27T08:47:25;12.50;99.90
8463;DHT22;4268;52.506;13.462;2022-09-27T08:52:42;12.60;99.90
8463;DHT22;4268;52.506;13.462;2022-09-27T08:55:39;12.70;99.90
8463;DHT22;4268;52.506;13.462;2022-09-27T08:58:24;12.70;99.90
8463;DHT22;4268;52.506;13.462;2022-09-27T09:00:52;12.80;99.90
8463;DHT22;4268;52.506;13.462;2022-09-27T09:03:21;12.80;99.90
8463;DHT22;4268;52.506;13.462;2022-09-27T09:08:53;12.90;99.90
8463;DHT22;4268;52.506;13.462;2022-09-27T09:15:02;12.90;99.90
8463;DHT22;4268;52.506;13.462;2022-09-27T09:18:08;12.90;99.90
8463;DHT22;4268;52.506;13.462;2022-09-27T09:21:01;12.90;99.90
8463;DHT22;4268;52.506;13.462;2022-09-27T09:26:55;13.00;99.90
8463;DHT22;4268;52.506;13.462;2022-09-27T09:29:46;13.00;99.90
8463;DHT22;4268;52.506;13.462;2022-09-27T09:35:16;13.10;99.90
8463;DHT22;4268;52.506;13.462;2022-09-27T09:37:47;13.20;99.90
8463;DHT22;4268;52.506;13.462;2022-09-27T09:45:34;13.50;99.90
8463;DHT22;4268;52.506;13.462;2022-09-27T09:48:27;13.60;99.90
8463;DHT22;4268;52.506;13.462;2022-09-27T09:50:56;13.60;99.90
8463;DHT22;4268;52.506;13.462;2022-09-27T09:53:47;13.60;99.90
8463;DHT22;4268;52.506;13.462;2022-09-27T09:56:19;13.60;99.90
8463;DHT22;4268;52.506;13.462;2022-09-27T09:58:56;13.60;99.90
8463;DHT22;4268;52.506;13.462;2022-09-27T10:01:32;13.70;99.90
8463;DHT22;4268;52.506;13.462;2022-09-27T10:03:58;13.70;99.90
8463;DHT22;4268;52.506;13.462;2022-09-27T10:06:25;13.80;99.90
8463;DHT22;4268;52.506;13.462;2022-09-27T10:08:51;13.90;99.90
8463;DHT22;4268;52.506;13.462;2022-09-27T10:11:25;14.00;99.90
8463;DHT22;4268;52.506;13.462;2022-09-27T10:13:51;14.10;99.90
8463;DHT22;4268;52.506;13.462;2022-09-27T10:16:19;14.10;99.90
8463;DHT22;4268;52.506;13.462;2022-09-27T10:18:46;14.10;99.90
8463;DHT22;4268;52.506;13.462;2022-09-27T10:21:18;14.00;99.90
8463;DHT22;4268;52.506;13.462;2022-09-27T10:24:11;14.10;99.90
8463;DHT22;4268;52.506;13.462;2022-09-27T10:26:38;14.10;99.90
8463;DHT22;4268;52.506;13.462;2022-09-27T10:31:49;14.00;99.90
8463;DHT22;4268;52.506;13.462;2022-09-27T10:34:30;13.90;99.90
8463;DHT22;4268;52.506;13.462;2022-09-27T10:37:15;13.90;99.90
8463;DHT22;4268;52.506;13.462;2022-09-27T10:39:45;13.90;99.90
8463;DHT22;4268;52.506;13.462;2022-09-27T10:42:35;14.00;99.90
8463;DHT22;4268;52.506;13.462;2022-09-27T10:45:24;14.10;99.90
8463;DHT22;4268;52.506;13.462;2022-09-27T10:47:51;14.20;99.90
8463;DHT22;4268;52.506;13.462;2022-09-27T10:50:25;14.20;99.90
8463;DHT22;4268;52.506;13.462;2022-09-27T10:53:04;14.20;99.90
8463;DHT22;4268;52.506;13.462;2022-09-27T10:55:35;14.50;99.90
8463;DHT22;4268;52.506;13.462;2022-09-27T10:58:01;14.80;99.90
8463;DHT22;4268;52.506;13.462;2022-09-27T11:00:32;15.20;99.90
8463;DHT22;4268;52.506;13.462;2022-09-27T11:03:19;15.40;99.90
8463;DHT22;4268;52.506;13.462;2022-09-27T11:05:44;15.70;99.90
8463;DHT22;4268;52.506;13.462;2022-09-27T11:08:24;15.70;99.90
8463;DHT22;4268;52.506;13.462;2022-09-27T11:13:37;15.50;99.90
8463;DHT22;4268;52.506;13.462;2022-09-27T11:19:18;15.20;99.90
8463;DHT22;4268;52.506;13.462;2022-09-27T11:24:42;14.90;99.90
8463;DHT22;4268;52.506;13.462;2022-09-27T11:30:08;14.50;99.90
8463;DHT22;4268;52.506;13.462;2022-09-27T11:35:43;14.30;99.90
8463;DHT22;4268;52.506;13.462;2022-09-27T11:41:04;14.50;99.90
8463;DHT22;4268;52.506;13.462;2022-09-27T11:46:31;14.20;99.90
8463;DHT22;4268;52.506;13.462;2022-09-27T11:49:19;14.20;99.90
8463;DHT22;4268;52.506;13.462;2022-09-27T11:52:21;14.20;99.90
8463;DHT22;4268;52.506;13.462;2022-09-27T11:55:18;14.10;99.90
8463;DHT22;4268;52.506;13.462;2022-09-27T11:57:59;14.00;99.90
8463;DHT22;4268;52.506;13.462;2022-09-27T12:00:56;13.90;99.90
8463;DHT22;4268;52.506;13.462;2022-09-27T12:03:39;13.60;99.90
8463;DHT22;4268;52.506;13.462;2022-09-27T12:09:02;13.00;99.90
8463;DHT22;4268;52.506;13.462;2022-09-27T12:14:28;12.60;99.90
8463;DHT22;4268;52.506;13.462;2022-09-27T12:16:57;12.50;99.90
8463;DHT22;4268;52.506;13.462;2022-09-27T12:19:29;12.50;99.90
8463;DHT22;4268;52.506;13.462;2022-09-27T12:22:01;12.40;99.90
8463;DHT22;4268;52.506;13.462;2022-09-27T12:24:28;12.40;99.90
8463;DHT22;4268;52.506;13.462;2022-09-27T12:27:00;12.40;99.90
8463;DHT22;4268;52.506;13.462;2022-09-27T12:29:37;12.40;99.90
8463;DHT22;4268;52.506;13.462;2022-09-27T12:32:21;12.30;99.90
8463;DHT22;4268;52.506;13.462;2022-09-27T12:34:58;12.30;99.90
8463;DHT22;4268;52.506;13.462;2022-09-27T12:40:36;12.60;99.90
8463;DHT22;4268;52.506;13.462;2022-09-27T12:43:11;13.00;99.90
8463;DHT22;4268;52.506;13.462;2022-09-27T12:45:41;13.30;99.90
8463;DHT22;4268;52.506;13.462;2022-09-27T12:51:15;13.90;99.90
8463;DHT22;4268;52.506;13.462;2022-09-27T12:56:50;14.60;99.90
8463;DHT22;4268;52.506;13.462;2022-09-27T13:12:00;14.70;99.90
8463;DHT22;4268;52.506;13.462;2022-09-27T13:14:31;14.80;99.90
8463;DHT22;4268;52.506;13.462;2022-09-27T13:16:58;15.00;99.90
8463;DHT22;4268;52.506;13.462;2022-09-27T13:19:39;15.10;99.90
8463;DHT22;4268;52.506;13.462;2022-09-27T13:22:36;15.10;99.90
8463;DHT22;4268;52.506;13.462;2022-09-27T13:25:13;14.90;99.90
8463;DHT22;4268;52.506;13.462;2022-09-27T13:27:48;14.80;99.90
8463;DHT22;4268;52.506;13.462;2022-09-27T13:35:35;14.20;99.90
8463;DHT22;4268;52.506;13.462;2022-09-27T13:38:01;14.20;99.90
8463;DHT22;4268;52.506;13.462;2022-09-27T13:40:29;14.20;99.90
8463;DHT22;4268;52.506;13.462;2022-09-27T13:45:48;14.20;99.90
8463;DHT22;4268;52.506;13.462;2022-09-27T13:48:22;14.20;99.90
8463;DHT22;4268;52.506;13.462;2022-09-27T13:50:53;14.30;99.90
8463;DHT22;4268;52.506;13.462;2022-09-27T13:53:36;14.30;99.90
8463;DHT22;4268;52.506;13.462;2022-09-27T13:56:02;14.10;99.90
8463;DHT22;4268;52.506;13.462;2022-09-27T13:58:48;14.10;99.90
8463;DHT22;4268;52.506;13.462;2022-09-27T14:01:35;14.00;99.90
8463;DHT22;4268;52.506;13.462;2022-09-27T14:04:26;14.00;99.90
8463;DHT22;4268;52.506;13.462;2022-09-27T14:06:59;13.90;99.90
8463;DHT22;4268;52.506;13.462;2022-09-27T14:09:30;13.90;99.90
8463;DHT22;4268;52.506;13.462;2022-09-27T14:11:59;13.80;99.90
8463;DHT22;4268;52.506;13.462;2022-09-27T14:14:29;13.80;99.90
8463;DHT22;4268;52.506;13.462;2022-09-27T14:16:58;13.80;99.90
8463;DHT22;4268;52.506;13.462;2022-09-27T14:19:24;13.70;99.90
8463;DHT22;4268;52.506;13.462;2022-09-27T14:21:51;13.60;99.90
8463;DHT22;4268;52.506;13.462;2022-09-27T14:24:28;13.50;99.90
8463;DHT22;4268;52.506;13.462;2022-09-27T14:27:20;13.50;99.90
8463;DHT22;4268;52.506;13.462;2022-09-27T14:30:05;13.50;99.90
8463;DHT22;4268;52.506;13.462;2022-09-27T14:32:33;13.60;99.90
8463;DHT22;4268;52.506;13.462;2022-09-27T14:35:11;13.70;99.90
8463;DHT22;4268;52.506;13.462;2022-09-27T14:38:10;13.90;99.90
8463;DHT22;4268;52.506;13.462;2022-09-27T14:40:53;13.90;99.90
8463;DHT22;4268;52.506;13.462;2022-09-27T14:43:20;14.00;99.90
8463;DHT22;4268;52.506;13.462;2022-09-27T14:45:47;14.00;99.90
8463;DHT22;4268;52.506;13.462;2022-09-27T14:48:27;14.10;99.90
8463;DHT22;4268;52.506;13.462;2022-09-27T14:50:58;14.00;99.90
8463;DHT22;4268;52.506;13.462;2022-09-27T14:53:27;13.90;99.90
8463;DHT22;4268;52.506;13.462;2022-09-27T14:55:54;13.90;99.90
8463;DHT22;4268;52.506;13.462;2022-09-27T14:58:21;13.80;99.90
8463;DHT22;4268;52.506;13.462;2022-09-27T15:00:48;13.70;99.90
8463;DHT22;4268;52.506;13.462;2022-09-27T15:03:26;13.70;99.90
8463;DHT22;4268;52.506;13.462;2022-09-27T15:05:54;13.70;99.90
8463;DHT22;4268;52.506;13.462;2022-09-27T15:08:22;13.60;99.90
8463;DHT22;4268;52.506;13.462;2022-09-27T15:10:49;13.60;99.90
8463;DHT22;4268;52.506;13.462;2022-09-27T15:13:16;13.50;99.90
8463;DHT22;4268;52.506;13.462;2022-09-27T15:15:43;13.50;99.90
8463;DHT22;4268;52.506;13.462;2022-09-27T15:20:59;13.40;99.90
8463;DHT22;4268;52.506;13.462;2022-09-27T15:23:29;13.30;99.90
8463;DHT22;4268;52.506;13.462;2022-09-27T15:26:52;13.20;99.90
8463;DHT22;4268;52.506;13.462;2022-09-27T15:29:00;13.10;99.90
8463;DHT22;4268;52.506;13.462;2022-09-27T15:31:34;13.10;99.90
8463;DHT22;4268;52.506;13.462;2022-09-27T15:34:01;13.10;99.90
8463;DHT22;4268;52.506;13.462;2022-09-27T15:36:50;13.10;99.90
8463;DHT22;4268;52.506;13.462;2022-09-27T15:39:18;13.10;99.90
8463;DHT22;4268;52.506;13.462;2022-09-27T15:42:05;13.10;99.90
8463;DHT22;4268;52.506;13.462;2022-09-27T15:44:51;13.10;99.90
8463;DHT22;4268;52.506;13.462;2022-09-27T15:52:51;13.20;99.90
8463;DHT22;4268;52.506;13.462;2022-09-27T15:55:25;13.20;99.90
8463;DHT22;4268;52.506;13.462;2022-09-27T15:57:57;13.10;99.90
8463;DHT22;4268;52.506;13.462;2022-09-27T16:00:24;13.00;99.90
8463;DHT22;4268;52.506;13.462;2022-09-27T16:02:50;13.00;99.90
8463;DHT22;4268;52.506;13.462;2022-09-27T16:05:16;13.00;99.90
8463;DHT22;4268;52.506;13.462;2022-09-27T16:07:41;12.90;99.90
8463;DHT22;4268;52.506;13.462;2022-09-27T16:10:29;12.90;99.90
8463;DHT22;4268;52.506;13.462;2022-09-27T16:12:55;12.80;99.90
8463;DHT22;4268;52.506;13.462;2022-09-27T16:15:20;12.70;99.90
8463;DHT22;4268;52.506;13.462;2022-09-27T16:17:46;12.60;99.90
8463;DHT22;4268;52.506;13.462;2022-09-27T16:20:23;12.70;99.90
8463;DHT22;4268;52.506;13.462;2022-09-27T16:22:53;12.50;99.90
8463;DHT22;4268;52.506;13.462;2022-09-27T16:25:20;12.60;99.90
8463;DHT22;4268;52.506;13.462;2022-09-27T16:27:46;12.60;99.90
8463;DHT22;4268;52.506;13.462;2022-09-27T16:30:12;12.30;99.90
8463;DHT22;4268;52.506;13.462;2022-09-27T16:32:43;12.30;99.90
8463;DHT22;4268;52.506;13.462;2022-09-27T16:35:10;12.30;99.90
8463;DHT22;4268;52.506;13.462;2022-09-27T16:37:35;12.20;99.90
8463;DHT22;4268;52.506;13.462;2022-09-27T16:40:02;12.20;99.90
8463;DHT22;4268;52.506;13.462;2022-09-27T16:42:28;11.80;99.90
8463;DHT22;4268;52.506;13.462;2022-09-27T16:44:54;12.10;99.90
8463;DHT22;4268;52.506;13.462;2022-09-27T16:47:20;12.10;99.90
8463;DHT22;4268;52.506;13.462;2022-09-27T16:49:45;12.00;99.90
8463;DHT22;4268;52.506;13.462;2022-09-27T16:52:30;12.00;99.90
8463;DHT22;4268;52.506;13.462;2022-09-27T16:54:57;11.90;99.90
8463;DHT22;4268;52.506;13.462;2022-09-27T16:57:23;11.90;99.90
8463;DHT22;4268;52.506;13.462;2022-09-27T16:59:49;11.80;99.90
8463;DHT22;4268;52.506;13.462;2022-09-27T17:02:14;11.80;99.90
8463;DHT22;4268;52.506;13.462;2022-09-27T17:04:40;11.70;99.90
8463;DHT22;4268;52.506;13.462;2022-09-27T17:07:06;11.70;99.90
8463;DHT22;4268;52.506;13.462;2022-09-27T17:09:31;11.70;99.90
8463;DHT22;4268;52.506;13.462;2022-09-27T17:11:57;11.60;99.90
8463;DHT22;4268;52.506;13.462;2022-09-27T17:14:22;11.60;99.90
8463;DHT22;4268;52.506;13.462;2022-09-27T17:16:51;11.50;99.90
8463;DHT22;4268;52.506;13.462;2022-09-27T17:19:17;11.50;99.90
8463;DHT22;4268;52.506;13.462;2022-09-27T17:21:44;11.50;99.90
8463;DHT22;4268;52.506;13.462;2022-09-27T17:24:09;11.40;99.90
8463;DHT22;4268;52.506;13.462;2022-09-27T17:26:35;11.40;99.90
8463;DHT22;4268;52.506;13.462;2022-09-27T17:29:00;11.40;99.90
8463;DHT22;4268;52.506;13.462;2022-09-27T17:31:27;12.20;99.90
8463;DHT22;4268;52.506;13.462;2022-09-27T17:33:53;11.30;99.90
8463;DHT22;4268;52.506;13.462;2022-09-27T17:36:21;11.30;99.90
8463;DHT22;4268;52.506;13.462;2022-09-27T17:38:48;11.30;99.90
8463;DHT22;4268;52.506;13.462;2022-09-27T17:41:16;11.30;99.90
8463;DHT22;4268;52.506;13.462;2022-09-27T17:43:43;11.20;99.90
8463;DHT22;4268;52.506;13.462;2022-09-27T17:46:17;11.20;99.90
8463;DHT22;4268;52.506;13.462;2022-09-27T17:48:43;11.20;99.90
8463;DHT22;4268;52.506;13.462;2022-09-27T17:51:27;11.20;99.90